sensor_id;sensor_type;location;lat;lon;timestamp;pressure;altitude;pressure_sealevel;temperature;humidity
33189;BME280;52601;53.070;10.600;2023-02-21T00:01:23;100945.88;;;10.36;100.00
33189;BME280;52601;53.070;10.600;2023-02-21T00:04:27;100938.97;;;10.34;100.00
33189;BME280;52601;53.070;10.600;2023-02-21T00:07:32;100938.00;;;10.36;100.00
33189;BME280;52601;53.070;10.600;2023-02-21T00:10:36;100939.28;;;10.28;100.00
33189;BME280;52601;53.070;10.600;2023-02-21T00:13:40;100941.75;;;10.31;100.00
33189;BME280;52601;53.070;10.600;2023-02-21T00:16:45;100936.69;;;10.26;100.00
33189;BME280;52601;53.070;10.600;2023-02-21T00:19:50;100941.03;;;10.27;100.00
33189;BME280;52601;53.070;10.600;2023-02-21T00:22:54;100944.56;;;10.26;100.00
33189;BME280;52601;53.070;10.600;2023-02-21T00:25:58;100940.19;;;10.27;100.00
33189;BME280;52601;53.070;10.600;2023-02-21T00:29:02;100951.38;;;10.30;100.00
33189;BME280;52601;53.070;10.600;2023-02-21T00:32:07;100958.41;;;10.30;100.00
33189;BME280;52601;53.070;10.600;2023-02-21T00:35:11;100955.72;;;10.31;100.00
33189;BME280;52601;53.070;10.600;2023-02-21T00:38:15;100959.16;;;10.32;100.00
33189;BME280;52601;53.070;10.600;2023-02-21T00:41:20;100955.72;;;10.31;100.00
33189;BME280;52601;53.070;10.600;2023-02-21T00:44:24;100945.41;;;10.27;100.00
33189;BME280;52601;53.070;10.600;2023-02-21T00:47:29;100947.94;;;10.30;100.00
33189;BME280;52601;53.070;10.600;2023-02-21T00:50:32;100960.69;;;10.37;100.00
33189;BME280;52601;53.070;10.600;2023-02-21T00:53:37;100967.09;;;10.30;100.00
33189;BME280;52601;53.070;10.600;2023-02-21T00:56:40;100967.88;;;10.32;100.00
33189;BME280;52601;53.070;10.600;2023-02-21T00:59:45;100965.50;;;10.28;100.00
33189;BME280;52601;53.070;10.600;2023-02-21T01:02:49;100963.84;;;10.25;100.00
33189;BME280;52601;53.070;10.600;2023-02-21T01:05:53;100967.44;;;10.23;100.00
33189;BME280;52601;53.070;10.600;2023-02-21T01:08:58;100979.09;;;10.36;100.00
33189;BME280;52601;53.070;10.600;2023-02-21T01:12:02;100985.66;;;10.26;100.00
33189;BME280;52601;53.070;10.600;2023-02-21T01:15:06;100977.13;;;10.21;100.00
33189;BME280;52601;53.070;10.600;2023-02-21T01:18:10;100986.56;;;10.25;100.00
33189;BME280;52601;53.070;10.600;2023-02-21T01:21:17;100980.88;;;10.35;100.00
33189;BME280;52601;53.070;10.600;2023-02-21T01:24:21;100989.66;;;10.34;100.00
33189;BME280;52601;53.070;10.600;2023-02-21T01:27:25;100990.63;;;10.32;100.00
33189;BME280;52601;53.070;10.600;2023-02-21T01:30:30;100989.78;;;10.31;100.00
33189;BME280;52601;53.070;10.600;2023-02-21T01:33:40;100986.47;;;10.28;100.00
33189;BME280;52601;53.070;10.600;2023-02-21T01:36:44;100996.97;;;10.26;100.00
33189;BME280;52601;53.070;10.600;2023-02-21T01:39:48;100991.69;;;10.28;100.00
33189;BME280;52601;53.070;10.600;2023-02-21T01:42:53;100995.16;;;10.28;100.00
33189;BME280;52601;53.070;10.600;2023-02-21T01:45:57;100979.31;;;10.31;100.00
33189;BME280;52601;53.070;10.600;2023-02-21T01:49:10;100981.25;;;10.26;100.00
33189;BME280;52601;53.070;10.600;2023-02-21T01:52:17;100991.88;;;10.23;100.00
33189;BME280;52601;53.070;10.600;2023-02-21T01:55:21;100992.41;;;10.31;100.00
33189;BME280;52601;53.070;10.600;2023-02-21T01:58:26;100992.25;;;10.34;100.00
33189;BME280;52601;53.070;10.600;2023-02-21T02:01:38;100985.06;;;10.39;100.00
33189;BME280;52601;53.070;10.600;2023-02-21T02:04:45;100979.31;;;10.31;100.00
33189;BME280;52601;53.070;10.600;2023-02-21T02:07:51;100981.22;;;10.28;100.00
33189;BME280;52601;53.070;10.600;2023-02-21T02:11:10;100989.06;;;10.28;100.00
33189;BME280;52601;53.070;10.600;2023-02-21T02:20:32;100982.81;;;10.30;100.00
33189;BME280;52601;53.070;10.600;2023-02-21T02:26:55;100984.41;;;10.34;100.00
33189;BME280;52601;53.070;10.600;2023-02-21T02:36:20;100966.53;;;10.24;100.00
33189;BME280;52601;53.070;10.600;2023-02-21T02:39:21;100960.19;;;10.29;100.00
33189;BME280;52601;53.070;10.600;2023-02-21T02:48:04;100961.06;;;10.28;100.00
33189;BME280;52601;53.070;10.600;2023-02-21T02:50:52;100966.38;;;10.27;100.00
33189;BME280;52601;53.070;10.600;2023-02-21T02:53:39;100971.88;;;10.21;100.00
33189;BME280;52601;53.070;10.600;2023-02-21T02:56:25;100970.25;;;10.18;100.00
33189;BME280;52601;53.070;10.600;2023-02-21T02:59:16;100968.56;;;10.17;100.00
33189;BME280;52601;53.070;10.600;2023-02-21T03:02:20;100976.00;;;10.26;100.00
33189;BME280;52601;53.070;10.600;2023-02-21T03:05:14;100973.66;;;10.20;100.00
33189;BME280;52601;53.070;10.600;2023-02-21T03:08:10;100962.91;;;10.26;100.00
33189;BME280;52601;53.070;10.600;2023-02-21T03:11:11;100964.47;;;10.30;100.00
33189;BME280;52601;53.070;10.600;2023-02-21T03:14:08;100949.34;;;10.17;100.00
33189;BME280;52601;53.070;10.600;2023-02-21T03:17:02;100958.78;;;10.21;100.00
33189;BME280;52601;53.070;10.600;2023-02-21T03:19:50;100963.16;;;10.20;100.00
33189;BME280;52601;53.070;10.600;2023-02-21T03:22:39;100963.38;;;10.16;100.00
33189;BME280;52601;53.070;10.600;2023-02-21T03:25:27;100964.22;;;10.16;100.00
33189;BME280;52601;53.070;10.600;2023-02-21T03:28:14;100953.81;;;10.15;100.00
33189;BME280;52601;53.070;10.600;2023-02-21T03:31:01;100959.66;;;10.21;100.00
33189;BME280;52601;53.070;10.600;2023-02-21T03:33:48;100968.38;;;10.22;100.00
33189;BME280;52601;53.070;10.600;2023-02-21T03:36:36;100969.97;;;10.24;100.00
33189;BME280;52601;53.070;10.600;2023-02-21T03:39:22;100963.38;;;10.16;100.00
33189;BME280;52601;53.070;10.600;2023-02-21T03:42:07;100964.28;;;10.15;100.00
33189;BME280;52601;53.070;10.600;2023-02-21T03:44:53;100960.09;;;10.11;100.00
33189;BME280;52601;53.070;10.600;2023-02-21T03:47:38;100964.97;;;10.20;100.00
33189;BME280;52601;53.070;10.600;2023-02-21T03:50:23;100969.59;;;10.13;100.00
33189;BME280;52601;53.070;10.600;2023-02-21T03:53:09;100971.19;;;10.17;100.00
33189;BME280;52601;53.070;10.600;2023-02-21T03:55:55;100963.66;;;10.08;100.00
33189;BME280;52601;53.070;10.600;2023-02-21T03:58:41;100968.75;;;10.13;100.00
33189;BME280;52601;53.070;10.600;2023-02-21T04:01:26;100957.94;;;10.20;100.00
33189;BME280;52601;53.070;10.600;2023-02-21T04:04:12;100970.25;;;10.18;100.00
33189;BME280;52601;53.070;10.600;2023-02-21T04:06:57;100970.22;;;10.20;100.00
33189;BME280;52601;53.070;10.600;2023-02-21T04:09:42;100971.63;;;10.27;100.00
33189;BME280;52601;53.070;10.600;2023-02-21T04:12:29;100963.13;;;10.22;100.00
33189;BME280;52601;53.070;10.600;2023-02-21T04:15:14;100967.63;;;10.18;100.00
33189;BME280;52601;53.070;10.600;2023-02-21T04:18:00;100968.75;;;10.13;100.00
33189;BME280;52601;53.070;10.600;2023-02-21T04:20:45;100969.47;;;10.16;100.00
33189;BME280;52601;53.070;10.600;2023-02-21T04:23:31;100970.25;;;10.18;100.00
33189;BME280;52601;53.070;10.600;2023-02-21T04:26:17;100966.84;;;10.16;100.00
33189;BME280;52601;53.070;10.600;2023-02-21T04:29:02;100975.44;;;10.20;100.00
33189;BME280;52601;53.070;10.600;2023-02-21T04:31:48;100971.97;;;10.19;100.00
33189;BME280;52601;53.070;10.600;2023-02-21T04:34:33;100970.25;;;10.18;100.00
33189;BME280;52601;53.070;10.600;2023-02-21T04:37:19;100971.19;;;10.17;100.00
33189;BME280;52601;53.070;10.600;2023-02-21T04:40:05;100969.34;;;10.19;100.00
33189;BME280;52601;53.070;10.600;2023-02-21T04:42:51;100970.69;;;10.08;100.00
33189;BME280;52601;53.070;10.600;2023-02-21T04:45:36;100975.44;;;10.20;100.00
33189;BME280;52601;53.070;10.600;2023-02-21T04:48:22;100974.69;;;10.16;100.00
33189;BME280;52601;53.070;10.600;2023-02-21T04:51:07;100976.53;;;10.14;100.00
33189;BME280;52601;53.070;10.600;2023-02-21T04:54:00;100975.81;;;10.11;100.00
33189;BME280;52601;53.070;10.600;2023-02-21T04:56:46;100975.00;;;10.09;100.00
33189;BME280;52601;53.070;10.600;2023-02-21T04:59:31;100975.47;;;10.18;100.00
33189;BME280;52601;53.070;10.600;2023-02-21T05:02:17;100965.81;;;9.99;100.00
33189;BME280;52601;53.070;10.600;2023-02-21T05:05:02;100977.53;;;10.12;100.00
33189;BME280;52601;53.070;10.600;2023-02-21T05:07:48;100980.16;;;10.12;100.00
33189;BME280;52601;53.070;10.600;2023-02-21T05:10:33;100974.94;;;10.10;100.00
33189;BME280;52601;53.070;10.600;2023-02-21T05:13:30;100987.94;;;10.13;100.00
33189;BME280;52601;53.070;10.600;2023-02-21T05:16:15;100978.00;;;10.21;100.00
33189;BME280;52601;53.070;10.600;2023-02-21T05:19:01;100991.16;;;10.20;100.00
33189;BME280;52601;53.070;10.600;2023-02-21T05:21:47;100981.84;;;10.13;100.00
33189;BME280;52601;53.070;10.600;2023-02-21T05:24:33;100994.69;;;10.19;100.00
33189;BME280;52601;53.070;10.600;2023-02-21T05:27:20;100998.41;;;10.13;100.00
33189;BME280;52601;53.070;10.600;2023-02-21T05:30:06;100995.16;;;10.07;100.00
33189;BME280;52601;53.070;10.600;2023-02-21T05:32:51;100984.69;;;10.07;100.00
33189;BME280;52601;53.070;10.600;2023-02-21T05:35:37;100984.59;;;10.10;100.00
33189;BME280;52601;53.070;10.600;2023-02-21T05:38:23;100999.44;;;10.09;100.00
33189;BME280;52601;53.070;10.600;2023-02-21T05:41:09;100994.38;;;10.05;100.00
33189;BME280;52601;53.070;10.600;2023-02-21T05:43:55;101002.22;;;10.05;100.00
33189;BME280;52601;53.070;10.600;2023-02-21T05:46:41;100996.53;;;9.95;100.00
33189;BME280;52601;53.070;10.600;2023-02-21T05:49:27;101001.50;;;10.01;100.00
33189;BME280;52601;53.070;10.600;2023-02-21T05:52:14;100995.16;;;10.07;100.00
33189;BME280;52601;53.070;10.600;2023-02-21T05:54:59;101006.75;;;10.01;100.00
33189;BME280;52601;53.070;10.600;2023-02-21T05:57:45;100994.44;;;10.03;100.00
33189;BME280;52601;53.070;10.600;2023-02-21T06:00:30;101001.16;;;10.10;100.00
33189;BME280;52601;53.070;10.600;2023-02-21T06:03:16;101003.88;;;10.07;100.00
33189;BME280;52601;53.070;10.600;2023-02-21T06:06:02;101000.59;;;10.02;100.00
33189;BME280;52601;53.070;10.600;2023-02-21T06:08:48;101010.88;;;10.07;100.00
33189;BME280;52601;53.070;10.600;2023-02-21T06:11:36;101011.75;;;10.07;100.00
33189;BME280;52601;53.070;10.600;2023-02-21T06:14:22;101018.66;;;10.10;100.00
33189;BME280;52601;53.070;10.600;2023-02-21T06:17:08;101022.88;;;10.14;100.00
33189;BME280;52601;53.070;10.600;2023-02-21T06:19:56;101030.72;;;10.14;100.00
33189;BME280;52601;53.070;10.600;2023-02-21T06:22:42;101031.75;;;10.10;100.00
33189;BME280;52601;53.070;10.600;2023-02-21T06:25:28;101039.50;;;10.13;100.00
33189;BME280;52601;53.070;10.600;2023-02-21T06:28:13;101042.78;;;10.18;100.00
33189;BME280;52601;53.070;10.600;2023-02-21T06:30:59;101044.53;;;10.17;100.00
33189;BME280;52601;53.070;10.600;2023-02-21T06:33:45;101053.81;;;10.26;100.00
33189;BME280;52601;53.070;10.600;2023-02-21T06:36:31;101049.78;;;10.17;100.00
33189;BME280;52601;53.070;10.600;2023-02-21T06:39:16;101054.56;;;10.06;100.00
33189;BME280;52601;53.070;10.600;2023-02-21T06:42:02;101064.03;;;10.10;100.00
33189;BME280;52601;53.070;10.600;2023-02-21T06:44:48;101066.22;;;10.21;100.00
33189;BME280;52601;53.070;10.600;2023-02-21T06:47:34;101068.25;;;10.14;100.00
33189;BME280;52601;53.070;10.600;2023-02-21T06:50:19;101065.69;;;10.13;100.00
33189;BME280;52601;53.070;10.600;2023-02-21T06:53:05;101079.00;;;10.07;100.00
33189;BME280;52601;53.070;10.600;2023-02-21T06:55:51;101075.41;;;10.09;100.00
33189;BME280;52601;53.070;10.600;2023-02-21T06:58:36;101082.19;;;10.15;100.00
33189;BME280;52601;53.070;10.600;2023-02-21T07:01:24;101080.09;;;10.01;100.00
33189;BME280;52601;53.070;10.600;2023-02-21T07:04:10;101085.28;;;10.03;100.00
33189;BME280;52601;53.070;10.600;2023-02-21T07:06:56;101087.91;;;10.03;100.00
33189;BME280;52601;53.070;10.600;2023-02-21T07:09:41;101098.19;;;10.07;100.00
33189;BME280;52601;53.070;10.600;2023-02-21T07:12:26;101095.47;;;10.10;100.00
33189;BME280;52601;53.070;10.600;2023-02-21T07:15:12;101114.09;;;10.03;100.00
33189;BME280;52601;53.070;10.600;2023-02-21T07:17:57;101113.00;;;10.10;100.00
33189;BME280;52601;53.070;10.600;2023-02-21T07:20:43;101114.00;;;10.06;100.00
33189;BME280;52601;53.070;10.600;2023-02-21T07:23:28;101121.84;;;10.06;100.00
33189;BME280;52601;53.070;10.600;2023-02-21T07:26:14;101124.03;;;10.18;100.00
33189;BME280;52601;53.070;10.600;2023-02-21T07:28:59;101124.03;;;10.18;100.00
33189;BME280;52601;53.070;10.600;2023-02-21T07:31:45;101133.75;;;10.14;100.00
33189;BME280;52601;53.070;10.600;2023-02-21T07:34:31;101129.06;;;10.22;100.00
33189;BME280;52601;53.070;10.600;2023-02-21T07:37:16;101138.56;;;10.25;100.00
33189;BME280;52601;53.070;10.600;2023-02-21T07:40:02;101130.69;;;10.03;100.00
33189;BME280;52601;53.070;10.600;2023-02-21T07:42:48;101135.22;;;10.21;100.00
33189;BME280;52601;53.070;10.600;2023-02-21T07:45:33;101144.75;;;10.24;100.00
33189;BME280;52601;53.070;10.600;2023-02-21T07:48:19;101147.47;;;10.21;100.00
33189;BME280;52601;53.070;10.600;2023-02-21T07:51:08;101136.88;;;10.24;100.00
33189;BME280;52601;53.070;10.600;2023-02-21T07:53:54;101144.06;;;10.19;100.00
33189;BME280;52601;53.070;10.600;2023-02-21T07:56:44;101150.94;;;10.21;100.00
33189;BME280;52601;53.070;10.600;2023-02-21T07:59:29;101149.78;;;10.28;100.00
33189;BME280;52601;53.070;10.600;2023-02-21T08:02:15;101142.47;;;10.36;100.00
33189;BME280;52601;53.070;10.600;2023-02-21T08:05:01;101145.09;;;10.36;100.00
33189;BME280;52601;53.070;10.600;2023-02-21T08:07:47;101149.59;;;10.33;100.00
33189;BME280;52601;53.070;10.600;2023-02-21T08:10:33;101145.25;;;10.32;100.00
33189;BME280;52601;53.070;10.600;2023-02-21T08:13:18;101137.53;;;10.29;100.00
33189;BME280;52601;53.070;10.600;2023-02-21T08:16:04;101146.22;;;10.08;100.00
33189;BME280;52601;53.070;10.600;2023-02-21T08:18:49;101154.06;;;9.86;100.00
33189;BME280;52601;53.070;10.600;2023-02-21T08:21:35;101166.06;;;10.15;100.00
33189;BME280;52601;53.070;10.600;2023-02-21T08:24:21;101164.81;;;10.02;100.00
33189;BME280;52601;53.070;10.600;2023-02-21T08:27:06;101145.53;;;10.03;100.00
33189;BME280;52601;53.070;10.600;2023-02-21T08:29:52;101155.84;;;10.07;100.00
33189;BME280;52601;53.070;10.600;2023-02-21T08:32:37;101156.38;;;10.17;100.00
33189;BME280;52601;53.070;10.600;2023-02-21T08:35:23;101156.63;;;10.09;100.00
33189;BME280;52601;53.070;10.600;2023-02-21T08:38:09;101164.53;;;10.31;100.00
33189;BME280;52601;53.070;10.600;2023-02-21T08:40:54;101171.34;;;10.57;100.00
33189;BME280;52601;53.070;10.600;2023-02-21T08:43:42;101161.34;;;10.66;100.00
33189;BME280;52601;53.070;10.600;2023-02-21T08:46:27;101160.25;;;10.72;100.00
33189;BME280;52601;53.070;10.600;2023-02-21T08:49:12;101165.59;;;10.69;100.00
33189;BME280;52601;53.070;10.600;2023-02-21T08:51:58;101168.13;;;10.72;100.00
33189;BME280;52601;53.070;10.600;2023-02-21T08:54:44;101164.16;;;10.82;100.00
33189;BME280;52601;53.070;10.600;2023-02-21T08:57:29;101175.44;;;10.84;100.00
33189;BME280;52601;53.070;10.600;2023-02-21T09:00:16;101178.41;;;10.96;100.00
33189;BME280;52601;53.070;10.600;2023-02-21T09:03:03;101179.88;;;11.03;100.00
33189;BME280;52601;53.070;10.600;2023-02-21T09:05:48;101173.19;;;11.16;100.00
33189;BME280;52601;53.070;10.600;2023-02-21T09:08:34;101177.44;;;11.19;100.00
33189;BME280;52601;53.070;10.600;2023-02-21T09:11:23;101181.72;;;11.01;100.00
33189;BME280;52601;53.070;10.600;2023-02-21T09:14:08;101190.31;;;11.25;100.00
33189;BME280;52601;53.070;10.600;2023-02-21T09:16:54;101199.28;;;11.40;100.00
33189;BME280;52601;53.070;10.600;2023-02-21T09:19:39;101189.97;;;11.53;100.00
33189;BME280;52601;53.070;10.600;2023-02-21T09:22:25;101193.22;;;11.58;100.00
33189;BME280;52601;53.070;10.600;2023-02-21T09:25:16;101199.88;;;11.46;100.00
33189;BME280;52601;53.070;10.600;2023-02-21T09:28:01;101194.63;;;11.66;100.00
33189;BME280;52601;53.070;10.600;2023-02-21T09:30:48;101195.66;;;11.62;100.00
33189;BME280;52601;53.070;10.600;2023-02-21T09:33:36;101199.63;;;11.91;100.00
33189;BME280;52601;53.070;10.600;2023-02-21T09:36:25;101197.75;;;11.74;100.00
33189;BME280;52601;53.070;10.600;2023-02-21T09:39:10;101211.88;;;11.72;100.00
33189;BME280;52601;53.070;10.600;2023-02-21T09:41:57;101204.16;;;11.69;100.00
33189;BME280;52601;53.070;10.600;2023-02-21T09:44:43;101209.75;;;11.80;100.00
33189;BME280;52601;53.070;10.600;2023-02-21T09:47:33;101218.34;;;11.63;100.00
33189;BME280;52601;53.070;10.600;2023-02-21T09:50:25;101226.16;;;11.66;100.00
33189;BME280;52601;53.070;10.600;2023-02-21T09:53:21;101224.81;;;11.56;100.00
33189;BME280;52601;53.070;10.600;2023-02-21T09:56:24;101229.63;;;11.47;100.00
33189;BME280;52601;53.070;10.600;2023-02-21T09:59:12;101224.19;;;11.51;100.00
33189;BME280;52601;53.070;10.600;2023-02-21T10:02:26;101232.44;;;11.42;100.00
33189;BME280;52601;53.070;10.600;2023-02-21T10:05:48;101237.50;;;11.26;100.00
33189;BME280;52601;53.070;10.600;2023-02-21T10:08:58;101236.34;;;11.12;100.00
33189;BME280;52601;53.070;10.600;2023-02-21T10:15:14;101235.38;;;11.14;100.00
33189;BME280;52601;53.070;10.600;2023-02-21T10:18:35;101231.63;;;11.20;100.00
33189;BME280;52601;53.070;10.600;2023-02-21T10:21:36;101236.00;;;11.21;100.00
33189;BME280;52601;53.070;10.600;2023-02-21T10:24:24;101236.53;;;11.49;100.00
33189;BME280;52601;53.070;10.600;2023-02-21T10:27:17;101238.03;;;11.35;100.00
33189;BME280;52601;53.070;10.600;2023-02-21T10:30:05;101245.56;;;11.42;100.00
33189;BME280;52601;53.070;10.600;2023-02-21T10:32:55;101241.81;;;11.27;100.00
33189;BME280;52601;53.070;10.600;2023-02-21T10:35:41;101236.53;;;11.29;100.00
33189;BME280;52601;53.070;10.600;2023-02-21T10:38:26;101242.59;;;11.29;100.00
33189;BME280;52601;53.070;10.600;2023-02-21T10:41:12;101249.16;;;11.40;100.00
33189;BME280;52601;53.070;10.600;2023-02-21T10:44:11;101243.38;;;11.52;100.00
33189;BME280;52601;53.070;10.600;2023-02-21T10:47:07;101250.66;;;11.67;100.00
33189;BME280;52601;53.070;10.600;2023-02-21T10:52:49;101249.16;;;11.60;100.00
33189;BME280;52601;53.070;10.600;2023-02-21T10:55:35;101257.00;;;11.41;100.00
33189;BME280;52601;53.070;10.600;2023-02-21T10:58:25;101263.03;;;11.23;100.00
33189;BME280;52601;53.070;10.600;2023-02-21T11:07:09;101245.84;;;11.76;100.00
33189;BME280;52601;53.070;10.600;2023-02-21T11:09:56;101239.00;;;11.72;100.00
33189;BME280;52601;53.070;10.600;2023-02-21T11:12:41;101249.28;;;11.97;100.00
33189;BME280;52601;53.070;10.600;2023-02-21T11:15:27;101238.94;;;11.74;100.00
33189;BME280;52601;53.070;10.600;2023-02-21T11:18:23;101249.53;;;11.72;100.00
33189;BME280;52601;53.070;10.600;2023-02-21T11:21:14;101247.88;;;12.08;100.00
33189;BME280;52601;53.070;10.600;2023-02-21T11:24:03;101257.38;;;11.92;100.00
33189;BME280;52601;53.070;10.600;2023-02-21T11:26:52;101254.47;;;11.98;100.00
33189;BME280;52601;53.070;10.600;2023-02-21T11:29:41;101246.59;;;11.98;100.00
33189;BME280;52601;53.070;10.600;2023-02-21T11:32:31;101253.84;;;12.31;100.00
33189;BME280;52601;53.070;10.600;2023-02-21T11:38:28;101258.09;;;12.33;100.00
33189;BME280;52601;53.070;10.600;2023-02-21T11:44:23;101244.03;;;12.34;100.00
33189;BME280;52601;53.070;10.600;2023-02-21T11:53:09;101250.38;;;13.20;100.00
33189;BME280;52601;53.070;10.600;2023-02-21T12:02:45;101249.78;;;12.42;100.00
33189;BME280;52601;53.070;10.600;2023-02-21T12:17:58;101249.63;;;12.45;100.00
33189;BME280;52601;53.070;10.600;2023-02-21T12:21:22;101250.38;;;12.30;100.00
33189;BME280;52601;53.070;10.600;2023-02-21T12:28:14;101250.81;;;12.75;100.00
33189;BME280;52601;53.070;10.600;2023-02-21T12:31:29;101242.47;;;13.02;100.00
33189;BME280;52601;53.070;10.600;2023-02-21T12:34:57;101239.63;;;13.40;100.00
33189;BME280;52601;53.070;10.600;2023-02-21T12:38:00;101231.69;;;14.23;100.00
33189;BME280;52601;53.070;10.600;2023-02-21T12:47:09;101240.59;;;14.37;100.00
33189;BME280;52601;53.070;10.600;2023-02-21T12:53:01;101240.06;;;14.31;100.00
33189;BME280;52601;53.070;10.600;2023-02-21T12:55:53;101239.75;;;14.20;100.00
33189;BME280;52601;53.070;10.600;2023-02-21T12:58:41;101236.44;;;14.01;100.00
33189;BME280;52601;53.070;10.600;2023-02-21T13:01:42;101238.38;;;14.45;100.00
33189;BME280;52601;53.070;10.600;2023-02-21T13:07:42;101232.44;;;14.57;100.00
33189;BME280;52601;53.070;10.600;2023-02-21T13:10:35;101228.66;;;14.30;100.00
33189;BME280;52601;53.070;10.600;2023-02-21T13:13:27;101221.50;;;13.84;100.00
33189;BME280;52601;53.070;10.600;2023-02-21T13:16:14;101224.34;;;13.97;100.00
33189;BME280;52601;53.070;10.600;2023-02-21T13:19:07;101220.28;;;14.22;100.00
33189;BME280;52601;53.070;10.600;2023-02-21T13:22:05;101229.47;;;13.67;100.00
33189;BME280;52601;53.070;10.600;2023-02-21T13:25:36;101223.63;;;13.77;100.00
33189;BME280;52601;53.070;10.600;2023-02-21T13:28:27;101218.50;;;13.74;100.00
33189;BME280;52601;53.070;10.600;2023-02-21T13:31:24;101216.69;;;13.42;100.00
33189;BME280;52601;53.070;10.600;2023-02-21T13:34:11;101221.78;;;13.62;100.00
33189;BME280;52601;53.070;10.600;2023-02-21T13:37:18;101221.59;;;13.50;100.00
33189;BME280;52601;53.070;10.600;2023-02-21T13:40:15;101208.22;;;13.20;100.00
33189;BME280;52601;53.070;10.600;2023-02-21T13:43:15;101222.59;;;12.96;100.00
33189;BME280;52601;53.070;10.600;2023-02-21T13:49:42;101204.88;;;12.64;100.00
33189;BME280;52601;53.070;10.600;2023-02-21T13:58:28;101231.44;;;12.03;100.00
33189;BME280;52601;53.070;10.600;2023-02-21T14:07:54;101223.00;;;11.97;100.00
33189;BME280;52601;53.070;10.600;2023-02-21T14:10:49;101223.47;;;11.86;100.00
33189;BME280;52601;53.070;10.600;2023-02-21T14:13:48;101221.56;;;11.90;100.00
33189;BME280;52601;53.070;10.600;2023-02-21T14:16:52;101223.69;;;12.38;100.00
33189;BME280;52601;53.070;10.600;2023-02-21T14:19:47;101221.25;;;12.87;100.00
33189;BME280;52601;53.070;10.600;2023-02-21T14:22:33;101217.88;;;13.37;100.00
33189;BME280;52601;53.070;10.600;2023-02-21T14:25:21;101211.25;;;13.30;100.00
33189;BME280;52601;53.070;10.600;2023-02-21T14:28:47;101224.47;;;13.11;100.00
33189;BME280;52601;53.070;10.600;2023-02-21T14:37:41;101226.34;;;12.73;100.00
33189;BME280;52601;53.070;10.600;2023-02-21T14:40:53;101232.25;;;12.43;100.00
33189;BME280;52601;53.070;10.600;2023-02-21T14:47:10;101223.00;;;12.16;100.00
33189;BME280;52601;53.070;10.600;2023-02-21T14:53:18;101226.13;;;11.86;100.00
33189;BME280;52601;53.070;10.600;2023-02-21T14:56:09;101232.38;;;12.02;100.00
33189;BME280;52601;53.070;10.600;2023-02-21T15:02:38;101228.84;;;11.83;100.00
33189;BME280;52601;53.070;10.600;2023-02-21T15:05:52;101228.47;;;11.92;100.00
33189;BME280;52601;53.070;10.600;2023-02-21T15:08:42;101224.97;;;11.92;100.00
33189;BME280;52601;53.070;10.600;2023-02-21T15:11:34;101222.03;;;11.79;100.00
33189;BME280;52601;53.070;10.600;2023-02-21T15:14:24;101229.66;;;11.85;100.00
33189;BME280;52601;53.070;10.600;2023-02-21T15:17:13;101238.81;;;11.77;100.00
33189;BME280;52601;53.070;10.600;2023-02-21T15:20:03;101230.94;;;11.77;100.00
33189;BME280;52601;53.070;10.600;2023-02-21T15:22:59;101238.03;;;11.75;100.00
33189;BME280;52601;53.070;10.600;2023-02-21T15:25:54;101231.13;;;11.52;100.00
33189;BME280;52601;53.070;10.600;2023-02-21T15:28:40;101216.03;;;11.57;100.00
33189;BME280;52601;53.070;10.600;2023-02-21T15:31:25;101223.53;;;11.66;100.00
33189;BME280;52601;53.070;10.600;2023-02-21T15:34:18;101213.63;;;12.10;100.00
33189;BME280;52601;53.070;10.600;2023-02-21T15:37:20;101227.13;;;12.02;100.00
33189;BME280;52601;53.070;10.600;2023-02-21T15:40:22;101227.69;;;11.90;100.00
33189;BME280;52601;53.070;10.600;2023-02-21T15:43:21;101224.84;;;11.95;100.00
33189;BME280;52601;53.070;10.600;2023-02-21T15:46:12;101235.63;;;11.89;100.00
33189;BME280;52601;53.070;10.600;2023-02-21T15:49:01;101234.16;;;12.02;100.00
33189;BME280;52601;53.070;10.600;2023-02-21T15:51:48;101230.47;;;12.25;100.00
33189;BME280;52601;53.070;10.600;2023-02-21T15:54:35;101228.25;;;12.16;100.00
33189;BME280;52601;53.070;10.600;2023-02-21T15:57:27;101234.28;;;12.36;100.00
33189;BME280;52601;53.070;10.600;2023-02-21T16:00:24;101235.28;;;12.34;100.00
33189;BME280;52601;53.070;10.600;2023-02-21T16:03:32;101236.78;;;12.02;100.00
33189;BME280;52601;53.070;10.600;2023-02-21T16:06:24;101234.91;;;11.85;100.00
33189;BME280;52601;53.070;10.600;2023-02-21T16:09:45;101236.28;;;11.54;100.00
33189;BME280;52601;53.070;10.600;2023-02-21T16:12:38;101240.75;;;11.52;100.00
33189;BME280;52601;53.070;10.600;2023-02-21T16:15:27;101234.88;;;11.47;100.00
33189;BME280;52601;53.070;10.600;2023-02-21T16:18:17;101238.66;;;11.60;100.00
33189;BME280;52601;53.070;10.600;2023-02-21T16:21:06;101246.16;;;11.49;100.00
33189;BME280;52601;53.070;10.600;2023-02-21T16:23:52;101245.22;;;11.29;100.00
33189;BME280;52601;53.070;10.600;2023-02-21T16:26:37;101243.09;;;11.39;100.00
33189;BME280;52601;53.070;10.600;2023-02-21T16:29:23;101235.63;;;11.08;100.00
33189;BME280;52601;53.070;10.600;2023-02-21T16:32:16;101234.75;;;11.09;100.00